Time;durP1;ratioP1;P1;durP2;ratioP2;P2;SDS_P1;SDS_P2;PMS_P1;PMS_P2;Temp;Humidity;BMP_temperature;BMP_pressure;BME280_temperature;BME280_humidity;BME280_pressure;Samples;Min_cycle;Max_cycle;Signal;HPM_P1;HPM_P2
2021/09/04 00:02:26;;;;;;;27.37;16.33;;;;;;;;;;5005979;28;20279;-72
2021/09/04 00:04:52;;;;;;;28.03;16.87;;;;;;;;;;5010307;28;20778;-72
2021/09/04 00:07:18;;;;;;;22.77;15.70;;;;;;;;;;5009314;28;20236;-72
2021/09/04 00:09:45;;;;;;;24.77;16.13;;;;;;;;;;5008948;28;20219;-72
2021/09/04 00:12:11;;;;;;;26.03;17.10;;;;;;;;;;5006835;28;20265;-72
2021/09/04 00:14:38;;;;;;;24.20;16.20;;;;;;;;;;5006661;28;20243;-73
2021/09/04 00:17:05;;;;;;;22.97;16.00;;;;;;;;;;5008302;28;20219;-72
2021/09/04 00:19:33;;;;;;;20.63;15.50;;;;;;;;;;5005405;28;20212;-72
2021/09/04 00:22:00;;;;;;;24.43;15.30;;;;;;;;;;5007916;28;20791;-72
2021/09/04 00:24:26;;;;;;;27.53;17.33;;;;;;;;;;5007222;28;20293;-72
2021/09/04 00:26:52;;;;;;;26.17;17.07;;;;;;;;;;5009332;28;20216;-72
2021/09/04 00:29:19;;;;;;;23.23;15.87;;;;;;;;;;5008692;28;20216;-73
2021/09/04 00:31:45;;;;;;;21.47;15.50;;;;;;;;;;5007832;28;20216;-72
2021/09/04 00:34:12;;;;;;;25.13;15.83;;;;;;;;;;5007344;28;20216;-72
2021/09/04 00:36:39;;;;;;;26.03;15.50;;;;;;;;;;5008651;28;20236;-73
2021/09/04 00:39:06;;;;;;;22.23;15.60;;;;;;;;;;5014385;28;20219;-73
2021/09/04 00:41:34;;;;;;;22.40;15.53;;;;;;;;;;5012648;28;20215;-73
2021/09/04 00:44:01;;;;;;;26.90;16.40;;;;;;;;;;5011974;28;20262;-73
2021/09/04 00:46:27;;;;;;;19.27;15.30;;;;;;;;;;5011748;28;20250;-72
2021/09/04 00:48:54;;;;;;;24.07;15.63;;;;;;;;;;5009644;28;20629;-72
2021/09/04 00:51:20;;;;;;;22.73;17.03;;;;;;;;;;5010815;28;20627;-72
2021/09/04 00:53:48;;;;;;;26.70;15.03;;;;;;;;;;5011840;28;20216;-73
2021/09/04 00:56:15;;;;;;;18.80;15.27;;;;;;;;;;5009476;28;20236;-72
2021/09/04 00:58:43;;;;;;;22.93;15.77;;;;;;;;;;5009454;28;20223;-72
2021/09/04 01:01:09;;;;;;;23.80;16.17;;;;;;;;;;5011245;28;20223;-73
2021/09/04 01:03:36;;;;;;;20.60;15.03;;;;;;;;;;5010295;28;20215;-73
2021/09/04 01:06:02;;;;;;;22.83;16.60;;;;;;;;;;5009832;28;20228;-73
2021/09/04 01:08:30;;;;;;;22.17;15.70;;;;;;;;;;5010555;28;20224;-73
2021/09/04 01:10:58;;;;;;;28.23;15.90;;;;;;;;;;5009453;28;20630;-72
2021/09/04 01:13:24;;;;;;;26.40;15.90;;;;;;;;;;5009993;28;20266;-73
2021/09/04 01:15:50;;;;;;;24.63;16.10;;;;;;;;;;5011419;28;20236;-73
2021/09/04 01:18:17;;;;;;;23.37;16.33;;;;;;;;;;5012243;28;20216;-73
2021/09/04 01:20:44;;;;;;;22.87;16.37;;;;;;;;;;5010785;28;20220;-73
2021/09/04 01:23:10;;;;;;;23.73;16.10;;;;;;;;;;5012233;28;20293;-73
2021/09/04 01:25:40;;;;;;;21.07;15.53;;;;;;;;;;5009526;28;20556;-73
2021/09/04 01:28:08;;;;;;;25.20;15.63;;;;;;;;;;5008486;28;20222;-73
2021/09/04 01:30:35;;;;;;;22.93;16.67;;;;;;;;;;5014047;28;20274;-73
2021/09/04 01:33:01;;;;;;;22.40;15.70;;;;;;;;;;5013947;28;20223;-72
2021/09/04 01:35:28;;;;;;;24.53;16.87;;;;;;;;;;5011128;28;20270;-73
2021/09/04 01:37:54;;;;;;;23.03;15.33;;;;;;;;;;5010312;28;20232;-72
2021/09/04 01:40:21;;;;;;;22.63;15.37;;;;;;;;;;5013399;28;20266;-72
2021/09/04 01:42:49;;;;;;;22.23;15.30;;;;;;;;;;5011679;28;20207;-72
2021/09/04 01:45:17;;;;;;;23.93;15.93;;;;;;;;;;5011190;28;20333;-73
2021/09/04 01:47:44;;;;;;;26.97;16.90;;;;;;;;;;5013452;28;20221;-73
2021/09/04 01:50:13;;;;;;;20.20;15.13;;;;;;;;;;5010942;28;20227;-73
2021/09/04 01:52:41;;;;;;;21.70;16.43;;;;;;;;;;5011299;28;20634;-73
2021/09/04 01:55:08;;;;;;;22.80;17.30;;;;;;;;;;5012208;28;20650;-73
2021/09/04 01:57:35;;;;;;;26.10;17.50;;;;;;;;;;5012362;28;20348;-73
2021/09/04 02:00:01;;;;;;;22.87;16.30;;;;;;;;;;5009394;28;20215;-73
2021/09/04 02:02:29;;;;;;;24.80;16.37;;;;;;;;;;5012175;28;20240;-72
2021/09/04 02:04:55;;;;;;;22.10;16.83;;;;;;;;;;5009973;28;20285;-73
2021/09/04 02:07:22;;;;;;;24.50;17.10;;;;;;;;;;5008561;28;20228;-73
2021/09/04 02:09:48;;;;;;;26.93;16.07;;;;;;;;;;5009838;28;20232;-72
2021/09/04 02:12:15;;;;;;;23.70;17.27;;;;;;;;;;5010135;28;20551;-73
2021/09/04 02:14:41;;;;;;;24.00;16.40;;;;;;;;;;5008404;28;20810;-73
2021/09/04 02:17:07;;;;;;;25.70;16.97;;;;;;;;;;5009517;28;20216;-73
2021/09/04 02:19:35;;;;;;;23.07;16.77;;;;;;;;;;5009872;28;20211;-73
2021/09/04 02:22:02;;;;;;;25.03;16.90;;;;;;;;;;5009542;28;20232;-73
2021/09/04 02:24:29;;;;;;;22.10;15.43;;;;;;;;;;5009939;28;20585;-72
2021/09/04 02:26:56;;;;;;;23.23;16.70;;;;;;;;;;5010439;28;20307;-72
2021/09/04 02:29:22;;;;;;;24.67;17.77;;;;;;;;;;5009695;28;20212;-73
2021/09/04 02:31:48;;;;;;;22.87;17.30;;;;;;;;;;5010070;28;20228;-73
2021/09/04 02:34:15;;;;;;;23.97;16.97;;;;;;;;;;5010723;28;20224;-73
2021/09/04 02:36:43;;;;;;;25.80;18.37;;;;;;;;;;5008503;28;20287;-73
2021/09/04 02:39:09;;;;;;;23.10;16.83;;;;;;;;;;5009510;28;20840;-72
2021/09/04 02:41:36;;;;;;;22.57;17.20;;;;;;;;;;5010387;28;20216;-73
2021/09/04 02:44:02;;;;;;;20.87;17.00;;;;;;;;;;5007972;28;20548;-72
2021/09/04 02:46:28;;;;;;;23.33;17.30;;;;;;;;;;5011507;28;20239;-72
2021/09/04 02:48:55;;;;;;;21.57;18.30;;;;;;;;;;5010043;28;20657;-72
2021/09/04 02:51:21;;;;;;;23.37;16.60;;;;;;;;;;5009547;28;20736;-72
2021/09/04 02:53:49;;;;;;;22.00;16.47;;;;;;;;;;5011249;28;20609;-72
2021/09/04 02:56:15;;;;;;;19.33;16.60;;;;;;;;;;5009278;28;20216;-73
2021/09/04 02:58:41;;;;;;;20.73;16.63;;;;;;;;;;5007139;28;20213;-72
2021/09/04 03:01:08;;;;;;;19.87;15.43;;;;;;;;;;5010238;28;20226;-72
2021/09/04 03:03:34;;;;;;;25.17;15.77;;;;;;;;;;5011233;28;20212;-72
2021/09/04 03:06:01;;;;;;;18.53;16.17;;;;;;;;;;5009776;28;20262;-73
2021/09/04 03:08:28;;;;;;;22.00;16.20;;;;;;;;;;5008982;28;20215;-72
2021/09/04 03:10:55;;;;;;;23.23;16.50;;;;;;;;;;5007115;28;20286;-72
2021/09/04 03:13:22;;;;;;;20.73;17.00;;;;;;;;;;5010408;28;21065;-72
2021/09/04 03:15:48;;;;;;;22.27;15.60;;;;;;;;;;5009081;28;20543;-72
2021/09/04 03:18:15;;;;;;;19.60;15.67;;;;;;;;;;5006721;28;20220;-72
2021/09/04 03:20:41;;;;;;;21.87;15.90;;;;;;;;;;5008287;28;20215;-72
2021/09/04 03:23:08;;;;;;;18.33;15.83;;;;;;;;;;5008696;28;20233;-72
2021/09/04 03:25:34;;;;;;;21.03;15.97;;;;;;;;;;5010222;28;20228;-72
2021/09/04 03:28:02;;;;;;;20.90;14.70;;;;;;;;;;5009182;28;20226;-72
2021/09/04 03:30:28;;;;;;;19.03;15.37;;;;;;;;;;5010142;28;20207;-72
2021/09/04 03:32:55;;;;;;;17.33;13.77;;;;;;;;;;5006828;28;20216;-72
2021/09/04 03:35:21;;;;;;;17.33;14.33;;;;;;;;;;5008639;28;20217;-72
2021/09/04 03:37:48;;;;;;;17.07;15.27;;;;;;;;;;5010115;28;20281;-72
2021/09/04 03:40:14;;;;;;;17.60;14.80;;;;;;;;;;5008804;28;21442;-72
2021/09/04 03:42:40;;;;;;;21.83;15.63;;;;;;;;;;5008916;28;20215;-72
2021/09/04 03:45:09;;;;;;;19.47;16.63;;;;;;;;;;5007201;28;20266;-72
2021/09/04 03:47:36;;;;;;;18.70;16.03;;;;;;;;;;5008985;28;20694;-72
2021/09/04 03:50:02;;;;;;;20.97;15.30;;;;;;;;;;5006918;28;20258;-72
2021/09/04 03:52:29;;;;;;;18.67;14.77;;;;;;;;;;5008117;28;20703;-72
2021/09/04 03:54:55;;;;;;;20.00;15.77;;;;;;;;;;5009636;28;20209;-73
2021/09/04 03:57:22;;;;;;;17.80;15.87;;;;;;;;;;5008161;28;20216;-72
2021/09/04 03:59:48;;;;;;;20.10;15.87;;;;;;;;;;5007885;28;20216;-72
2021/09/04 04:02:16;;;;;;;17.07;15.10;;;;;;;;;;5009349;28;20727;-72
2021/09/04 04:04:42;;;;;;;18.47;14.37;;;;;;;;;;5005233;28;20216;-72
2021/09/04 04:07:09;;;;;;;21.90;15.40;;;;;;;;;;5006196;28;20640;-72
2021/09/04 04:09:35;;;;;;;21.53;14.93;;;;;;;;;;5009940;28;20217;-72
2021/09/04 04:12:02;;;;;;;15.27;13.30;;;;;;;;;;5007138;28;20224;-72
2021/09/04 04:14:28;;;;;;;18.33;13.70;;;;;;;;;;5010424;28;20242;-72
2021/09/04 04:16:55;;;;;;;16.00;13.93;;;;;;;;;;5007961;28;20228;-72
2021/09/04 04:19:22;;;;;;;21.17;13.57;;;;;;;;;;5009111;28;20607;-73
2021/09/04 04:21:49;;;;;;;18.03;13.50;;;;;;;;;;5006522;28;20236;-72
2021/09/04 04:24:15;;;;;;;17.20;13.27;;;;;;;;;;5008247;28;20224;-72
2021/09/04 04:26:42;;;;;;;21.20;14.07;;;;;;;;;;5005029;28;20290;-72
2021/09/04 04:29:08;;;;;;;16.57;12.80;;;;;;;;;;5006083;28;20207;-72
2021/09/04 04:31:38;;;;;;;18.88;14.68;;;;;;;;;;5010441;28;20513;-75
2021/09/04 04:34:04;;;;;;;18.27;14.33;;;;;;;;;;5007009;28;20388;-75
2021/09/04 04:36:32;;;;;;;18.30;14.10;;;;;;;;;;5007797;28;20232;-74
2021/09/04 04:38:58;;;;;;;19.40;13.63;;;;;;;;;;5008997;28;20714;-75
2021/09/04 04:41:24;;;;;;;16.77;13.97;;;;;;;;;;5005836;28;20629;-75
2021/09/04 04:43:51;;;;;;;18.13;13.80;;;;;;;;;;5003304;28;20220;-75
2021/09/04 04:46:17;;;;;;;17.00;13.80;;;;;;;;;;5005529;28;20240;-75
2021/09/04 04:48:44;;;;;;;16.20;13.70;;;;;;;;;;5006185;28;20638;-75
2021/09/04 04:51:10;;;;;;;16.00;13.63;;;;;;;;;;5006908;28;20382;-75
2021/09/04 04:53:39;;;;;;;15.60;13.20;;;;;;;;;;5005591;28;20261;-75
2021/09/04 04:56:06;;;;;;;17.17;13.17;;;;;;;;;;5004498;28;20649;-75
2021/09/04 04:58:32;;;;;;;16.80;13.63;;;;;;;;;;5006713;28;20266;-75
2021/09/04 05:00:59;;;;;;;16.37;13.83;;;;;;;;;;5006256;28;20289;-75
2021/09/04 05:03:25;;;;;;;14.70;13.13;;;;;;;;;;5006587;28;20216;-75
2021/09/04 05:05:52;;;;;;;17.73;12.77;;;;;;;;;;5006512;28;20703;-75
2021/09/04 05:08:18;;;;;;;15.30;12.93;;;;;;;;;;5010394;28;20667;-75
2021/09/04 05:10:46;;;;;;;18.50;14.33;;;;;;;;;;5008953;28;20219;-75
2021/09/04 05:13:12;;;;;;;16.17;12.73;;;;;;;;;;5008015;28;20208;-75
2021/09/04 05:15:39;;;;;;;18.63;13.90;;;;;;;;;;5005577;28;20237;-74
2021/09/04 05:18:05;;;;;;;15.13;13.47;;;;;;;;;;5005741;28;20220;-75
2021/09/04 05:20:31;;;;;;;15.87;13.37;;;;;;;;;;5007030;28;20671;-75
2021/09/04 05:22:58;;;;;;;19.37;13.47;;;;;;;;;;5007232;28;20287;-75
2021/09/04 05:25:24;;;;;;;19.00;13.10;;;;;;;;;;5008316;28;20249;-75
2021/09/04 05:27:52;;;;;;;15.93;13.37;;;;;;;;;;5007449;28;20668;-75
2021/09/04 05:30:18;;;;;;;17.53;13.10;;;;;;;;;;5011071;28;20214;-75
2021/09/04 05:32:45;;;;;;;17.60;12.77;;;;;;;;;;5010025;28;21164;-74
2021/09/04 05:35:11;;;;;;;18.60;12.57;;;;;;;;;;5008488;28;20224;-75
2021/09/04 05:37:38;;;;;;;19.03;13.43;;;;;;;;;;5009889;28;20282;-75
2021/09/04 05:40:06;;;;;;;17.40;13.10;;;;;;;;;;5009226;28;20221;-75
2021/09/04 05:42:32;;;;;;;17.10;12.63;;;;;;;;;;5009620;28;20237;-74
2021/09/04 05:45:00;;;;;;;16.80;13.40;;;;;;;;;;5006988;28;20266;-75
2021/09/04 05:47:26;;;;;;;15.00;12.90;;;;;;;;;;5010888;28;20235;-75
2021/09/04 05:49:53;;;;;;;15.67;11.97;;;;;;;;;;5009831;28;20214;-75
2021/09/04 05:52:19;;;;;;;18.20;11.47;;;;;;;;;;5008942;28;20313;-75
2021/09/04 05:54:45;;;;;;;16.47;11.87;;;;;;;;;;5011256;28;20231;-75
2021/09/04 05:57:12;;;;;;;14.67;11.47;;;;;;;;;;5010965;28;20211;-75
2021/09/04 05:59:38;;;;;;;15.13;11.97;;;;;;;;;;5010263;28;20696;-75
2021/09/04 06:02:06;;;;;;;14.57;11.57;;;;;;;;;;5009709;28;20247;-74
2021/09/04 06:04:36;;;;;;;13.10;11.30;;;;;;;;;;5010853;28;20719;-74
2021/09/04 06:07:03;;;;;;;14.13;11.33;;;;;;;;;;5008071;28;20232;-76
2021/09/04 06:09:29;;;;;;;15.30;11.87;;;;;;;;;;5009374;28;20286;-76
2021/09/04 06:11:56;;;;;;;15.67;11.57;;;;;;;;;;5009380;28;20901;-74
2021/09/04 06:14:22;;;;;;;15.77;11.47;;;;;;;;;;5010472;28;20236;-74
2021/09/04 06:16:48;;;;;;;14.37;11.47;;;;;;;;;;5009442;28;20213;-74
2021/09/04 06:19:16;;;;;;;13.47;11.27;;;;;;;;;;5011013;28;20224;-74
2021/09/04 06:21:43;;;;;;;13.23;10.93;;;;;;;;;;5009150;28;20294;-74
2021/09/04 06:24:09;;;;;;;13.23;11.23;;;;;;;;;;5012619;28;20683;-74
2021/09/04 06:26:36;;;;;;;17.97;10.83;;;;;;;;;;5007113;28;20287;-74
2021/09/04 06:29:02;;;;;;;15.53;10.17;;;;;;;;;;5008179;28;20270;-74
2021/09/04 06:31:28;;;;;;;16.17;9.93;;;;;;;;;;5007475;28;20271;-74
2021/09/04 06:33:55;;;;;;;13.67;9.80;;;;;;;;;;5008469;28;20223;-74
2021/09/04 06:36:22;;;;;;;14.17;10.63;;;;;;;;;;5010267;28;20276;-74
2021/09/04 06:38:49;;;;;;;12.50;10.27;;;;;;;;;;5008095;28;20562;-74
2021/09/04 06:41:15;;;;;;;15.00;9.97;;;;;;;;;;5008068;28;20217;-74
2021/09/04 06:43:41;;;;;;;12.37;10.00;;;;;;;;;;5007380;28;20267;-74
2021/09/04 06:46:08;;;;;;;11.57;9.07;;;;;;;;;;5007236;28;20232;-74
2021/09/04 06:48:34;;;;;;;12.93;9.57;;;;;;;;;;5008501;28;20212;-74
2021/09/04 06:51:01;;;;;;;13.67;8.80;;;;;;;;;;5009858;28;20816;-74
2021/09/04 06:53:29;;;;;;;13.50;9.77;;;;;;;;;;5010299;28;20208;-74
2021/09/04 06:55:55;;;;;;;13.13;9.97;;;;;;;;;;5005528;28;20258;-74
2021/09/04 06:58:21;;;;;;;11.47;9.90;;;;;;;;;;5004879;28;20212;-74
2021/09/04 07:00:48;;;;;;;12.47;9.67;;;;;;;;;;5008769;28;20209;-74
2021/09/04 07:03:15;;;;;;;14.40;9.43;;;;;;;;;;5007034;28;20240;-74
2021/09/04 07:05:41;;;;;;;10.53;9.27;;;;;;;;;;5008401;28;20659;-74
2021/09/04 07:08:08;;;;;;;10.53;8.93;;;;;;;;;;5009226;28;20581;-74
2021/09/04 07:10:35;;;;;;;12.80;9.53;;;;;;;;;;5005791;28;20264;-74
2021/09/04 07:13:02;;;;;;;12.43;9.30;;;;;;;;;;5010051;28;20639;-73
2021/09/04 07:15:28;;;;;;;10.53;8.27;;;;;;;;;;5007457;28;20366;-76
2021/09/04 07:17:54;;;;;;;10.37;8.47;;;;;;;;;;5008571;28;20212;-74
2021/09/04 07:20:21;;;;;;;10.00;8.13;;;;;;;;;;5004954;28;20282;-74
2021/09/04 07:22:47;;;;;;;9.37;7.93;;;;;;;;;;5007225;28;20228;-74
2021/09/04 07:25:14;;;;;;;10.37;7.67;;;;;;;;;;5006737;28;20213;-74
2021/09/04 07:27:41;;;;;;;10.00;7.67;;;;;;;;;;5004764;28;20240;-74
2021/09/04 07:30:09;;;;;;;12.93;7.67;;;;;;;;;;5004039;28;20246;-74
2021/09/04 07:32:35;;;;;;;11.57;7.70;;;;;;;;;;5006884;28;20243;-74
2021/09/04 07:35:02;;;;;;;10.37;7.07;;;;;;;;;;5006437;28;20227;-74
2021/09/04 07:37:28;;;;;;;9.73;7.03;;;;;;;;;;5007979;28;20284;-74
2021/09/04 07:39:55;;;;;;;15.67;8.07;;;;;;;;;;5007642;28;20721;-74
2021/09/04 07:42:21;;;;;;;12.53;7.87;;;;;;;;;;5006806;28;20337;-74
2021/09/04 07:44:49;;;;;;;10.50;7.23;;;;;;;;;;5005422;28;20217;-74
2021/09/04 07:47:15;;;;;;;11.70;7.67;;;;;;;;;;5007776;28;20639;-74
2021/09/04 07:49:42;;;;;;;9.73;7.33;;;;;;;;;;5008376;28;20222;-74
2021/09/04 07:52:08;;;;;;;11.57;7.73;;;;;;;;;;5007448;28;20262;-74
2021/09/04 07:54:35;;;;;;;10.97;8.27;;;;;;;;;;5005857;28;20679;-74
2021/09/04 07:57:01;;;;;;;8.30;7.50;;;;;;;;;;5005670;28;20210;-74
2021/09/04 07:59:27;;;;;;;9.47;7.70;;;;;;;;;;5005426;28;20274;-74
2021/09/04 08:01:55;;;;;;;10.43;8.07;;;;;;;;;;5005916;28;20250;-73
2021/09/04 08:04:21;;;;;;;9.07;7.73;;;;;;;;;;5004097;28;20211;-74
2021/09/04 08:06:48;;;;;;;9.93;7.83;;;;;;;;;;5006291;28;20726;-74
2021/09/04 08:09:14;;;;;;;9.33;6.60;;;;;;;;;;5005331;28;20212;-74
2021/09/04 08:11:41;;;;;;;8.80;7.43;;;;;;;;;;5006855;28;20264;-73
2021/09/04 08:14:07;;;;;;;13.80;8.00;;;;;;;;;;5004303;28;20245;-73
2021/09/04 08:16:33;;;;;;;8.90;7.17;;;;;;;;;;5003163;28;20220;-74
2021/09/04 08:19:01;;;;;;;10.17;6.93;;;;;;;;;;5003366;28;20217;-73
2021/09/04 08:21:28;;;;;;;8.90;7.77;;;;;;;;;;5005154;28;20232;-74
2021/09/04 08:23:54;;;;;;;9.80;7.60;;;;;;;;;;5007690;28;20720;-74
2021/09/04 08:26:20;;;;;;;11.27;7.47;;;;;;;;;;5007141;28;20267;-74
2021/09/04 08:28:47;;;;;;;10.30;7.47;;;;;;;;;;5005514;28;20263;-73
2021/09/04 08:31:14;;;;;;;9.97;6.90;;;;;;;;;;5006744;28;20356;-74
2021/09/04 08:33:40;;;;;;;13.00;7.43;;;;;;;;;;5004924;28;20214;-74
2021/09/04 08:36:08;;;;;;;9.40;7.10;;;;;;;;;;5006087;28;20241;-74
2021/09/04 08:38:34;;;;;;;9.20;6.80;;;;;;;;;;5010306;28;20217;-74
2021/09/04 08:41:01;;;;;;;9.53;6.93;;;;;;;;;;5005642;28;20218;-74
2021/09/04 08:43:27;;;;;;;9.50;6.83;;;;;;;;;;5005188;28;20610;-74
2021/09/04 08:45:54;;;;;;;9.60;8.00;;;;;;;;;;5005844;28;20219;-74
2021/09/04 08:48:21;;;;;;;10.37;7.40;;;;;;;;;;5004344;28;20847;-74
2021/09/04 08:50:47;;;;;;;7.73;6.60;;;;;;;;;;5004409;28;20272;-74
2021/09/04 08:53:15;;;;;;;9.03;7.47;;;;;;;;;;5005943;28;20239;-74
2021/09/04 08:55:41;;;;;;;9.97;7.63;;;;;;;;;;5005787;28;20226;-73
2021/09/04 08:58:08;;;;;;;10.63;7.20;;;;;;;;;;5005741;28;20211;-73
2021/09/04 09:00:36;;;;;;;7.83;6.97;;;;;;;;;;5009086;28;20581;-73
2021/09/04 09:03:04;;;;;;;10.93;7.80;;;;;;;;;;5009787;28;20285;-73
2021/09/04 09:05:38;;;;;;;10.57;7.97;;;;;;;;;;5008537;28;20259;-73
2021/09/04 09:08:05;;;;;;;11.40;8.00;;;;;;;;;;5007082;28;20340;-73
2021/09/04 09:10:36;;;;;;;11.60;7.53;;;;;;;;;;5010110;28;20317;-73
2021/09/04 09:13:03;;;;;;;9.77;7.83;;;;;;;;;;5007118;28;20566;-73
2021/09/04 09:15:31;;;;;;;12.10;8.00;;;;;;;;;;5009604;28;20293;-73
2021/09/04 09:18:00;;;;;;;11.07;6.83;;;;;;;;;;5008740;28;20251;-73
2021/09/04 09:20:27;;;;;;;10.20;7.13;;;;;;;;;;5010758;28;20219;-73
2021/09/04 09:22:54;;;;;;;8.80;7.00;;;;;;;;;;5008192;28;20233;-73
2021/09/04 09:25:21;;;;;;;9.20;7.33;;;;;;;;;;5007873;28;20717;-75
2021/09/04 09:28:00;;;;;;;10.67;7.27;;;;;;;;;;5010614;28;20635;-74
2021/09/04 09:30:35;;;;;;;10.43;7.93;;;;;;;;;;5008133;28;20639;-74
2021/09/04 09:33:02;;;;;;;12.63;7.77;;;;;;;;;;5010666;28;20245;-74
2021/09/04 09:35:34;;;;;;;9.97;7.97;;;;;;;;;;5008043;28;20223;-74
2021/09/04 09:38:01;;;;;;;9.33;7.60;;;;;;;;;;5008966;28;20231;-74
2021/09/04 09:40:29;;;;;;;10.10;7.73;;;;;;;;;;5010592;28;20262;-74
2021/09/04 09:42:55;;;;;;;13.00;7.80;;;;;;;;;;5009387;28;20219;-74
2021/09/04 09:45:38;;;;;;;10.23;7.50;;;;;;;;;;5008895;28;20210;-73
2021/09/04 09:48:05;;;;;;;10.70;7.60;;;;;;;;;;5006457;28;20573;-73
2021/09/04 09:50:34;;;;;;;11.73;8.60;;;;;;;;;;5007618;28;20733;-73
2021/09/04 09:53:01;;;;;;;11.40;7.87;;;;;;;;;;5008677;28;20238;-73
2021/09/04 09:55:28;;;;;;;9.87;7.50;;;;;;;;;;5007658;28;20219;-73
2021/09/04 09:57:56;;;;;;;9.40;7.00;;;;;;;;;;5006984;28;20219;-73
2021/09/04 10:00:25;;;;;;;9.00;7.47;;;;;;;;;;5010973;28;20273;-73
2021/09/04 10:02:52;;;;;;;10.07;7.57;;;;;;;;;;5008067;28;20883;-73
2021/09/04 10:05:24;;;;;;;8.07;6.93;;;;;;;;;;5007044;28;20240;-73
2021/09/04 10:07:53;;;;;;;10.60;6.80;;;;;;;;;;5007344;28;20235;-73
2021/09/04 10:10:20;;;;;;;11.90;7.83;;;;;;;;;;5005818;28;20280;-73
2021/09/04 10:12:48;;;;;;;10.13;7.23;;;;;;;;;;5009590;28;20220;-73
2021/09/04 10:15:15;;;;;;;11.77;7.67;;;;;;;;;;5008848;28;20240;-73
2021/09/04 10:17:45;;;;;;;10.73;7.23;;;;;;;;;;5009052;28;20617;-73
2021/09/04 10:20:12;;;;;;;7.67;6.70;;;;;;;;;;5008090;28;20220;-73
2021/09/04 10:22:41;;;;;;;11.30;7.20;;;;;;;;;;5008757;28;20235;-73
2021/09/04 10:25:14;;;;;;;8.20;6.97;;;;;;;;;;5008826;28;20260;-73
2021/09/04 10:27:44;;;;;;;7.87;6.77;;;;;;;;;;5007234;28;20224;-73
2021/09/04 10:30:25;;;;;;;9.63;6.60;;;;;;;;;;5008394;28;20208;-73
2021/09/04 10:33:06;;;;;;;9.63;7.43;;;;;;;;;;5005996;28;20204;-73
2021/09/04 10:35:52;;;;;;;9.63;7.40;;;;;;;;;;5008497;28;20294;-73
2021/09/04 10:38:35;;;;;;;8.13;7.27;;;;;;;;;;5005431;28;20200;-74
2021/09/04 10:41:22;;;;;;;10.57;7.90;;;;;;;;;;5005522;28;20216;-73
2021/09/04 10:43:51;;;;;;;12.43;7.63;;;;;;;;;;5006387;28;20291;-73
2021/09/04 10:46:20;;;;;;;9.43;6.77;;;;;;;;;;5009810;28;20212;-73
2021/09/04 10:48:59;;;;;;;8.47;6.80;;;;;;;;;;5005902;28;20305;-73
2021/09/04 10:51:52;;;;;;;10.67;7.03;;;;;;;;;;5004421;28;20235;-73
2021/09/04 10:54:38;;;;;;;9.83;6.90;;;;;;;;;;5006501;28;20651;-73
2021/09/04 10:57:15;;;;;;;11.40;7.20;;;;;;;;;;5007119;28;20862;-73
2021/09/04 10:59:58;;;;;;;8.97;7.10;;;;;;;;;;5004515;28;20216;-73
2021/09/04 11:02:39;;;;;;;11.03;7.43;;;;;;;;;;5004546;28;20251;-73
2021/09/04 11:05:38;;;;;;;9.23;7.00;;;;;;;;;;5005530;28;20262;-73
2021/09/04 11:08:06;;;;;;;13.60;8.10;;;;;;;;;;5006660;28;20232;-74
2021/09/04 11:10:34;;;;;;;9.80;7.50;;;;;;;;;;5004972;28;20243;-73
2021/09/04 11:13:36;;;;;;;9.20;7.13;;;;;;;;;;5007207;28;20235;-73
2021/09/04 11:16:58;;;;;;;10.70;7.53;;;;;;;;;;5005176;28;20214;-74
2021/09/04 11:19:28;;;;;;;9.43;6.83;;;;;;;;;;4936409;29;20218;-73
2021/09/04 11:22:06;;;;;;;9.03;6.53;;;;;;;;;;4936454;29;20286;-73
2021/09/04 11:24:36;;;;;;;13.17;7.27;;;;;;;;;;4982111;28;20640;-73
2021/09/04 11:27:06;;;;;;;10.23;6.70;;;;;;;;;;5003633;28;20565;-73
2021/09/04 11:29:44;;;;;;;13.00;7.87;;;;;;;;;;5003956;28;20304;-72
2021/09/04 11:32:12;;;;;;;12.63;7.33;;;;;;;;;;5006636;28;20298;-72
2021/09/04 11:34:42;;;;;;;11.03;6.97;;;;;;;;;;5006183;28;20223;-72
2021/09/04 11:37:24;;;;;;;8.40;6.63;;;;;;;;;;5004379;28;20260;-72
2021/09/04 11:39:52;;;;;;;12.30;7.77;;;;;;;;;;5006875;28;20243;-73
2021/09/04 11:42:21;;;;;;;9.47;7.30;;;;;;;;;;5004448;28;20355;-73
2021/09/04 11:44:49;;;;;;;9.33;7.40;;;;;;;;;;5005316;28;20225;-72
2021/09/04 11:47:16;;;;;;;9.48;7.60;;;;;;;;;;5003297;28;20453;-73
2021/09/04 11:49:44;;;;;;;9.97;7.87;;;;;;;;;;5005086;28;20873;-73
2021/09/04 11:52:21;;;;;;;10.53;6.83;;;;;;;;;;5005362;28;20366;-73
2021/09/04 11:54:48;;;;;;;9.40;7.17;;;;;;;;;;5006224;28;20379;-73
2021/09/04 11:57:25;;;;;;;9.77;7.17;;;;;;;;;;5003397;28;20279;-73
2021/09/04 12:00:10;;;;;;;8.00;6.90;;;;;;;;;;5003404;28;20248;-73
2021/09/04 12:02:42;;;;;;;9.77;7.57;;;;;;;;;;5003627;28;20747;-73
2021/09/04 12:05:10;;;;;;;10.60;7.60;;;;;;;;;;5004043;28;21239;-73
2021/09/04 12:07:39;;;;;;;7.83;6.83;;;;;;;;;;5007299;28;20698;-73
2021/09/04 12:10:08;;;;;;;9.20;6.37;;;;;;;;;;5004732;28;20672;-73
2021/09/04 12:12:35;;;;;;;10.90;7.47;;;;;;;;;;5004640;28;20223;-73
2021/09/04 12:15:03;;;;;;;11.20;7.30;;;;;;;;;;5005306;28;20233;-73
2021/09/04 12:17:29;;;;;;;9.43;6.53;;;;;;;;;;5006266;28;20222;-74
2021/09/04 12:19:56;;;;;;;10.57;7.57;;;;;;;;;;5005292;28;21443;-73
2021/09/04 12:22:33;;;;;;;11.37;7.93;;;;;;;;;;5004938;28;20233;-74
2021/09/04 12:25:01;;;;;;;9.77;7.63;;;;;;;;;;5006428;28;20225;-73
2021/09/04 12:27:41;;;;;;;10.63;7.73;;;;;;;;;;5003954;28;20291;-72
2021/09/04 12:30:08;;;;;;;8.50;6.93;;;;;;;;;;5007091;28;20221;-73
2021/09/04 12:32:36;;;;;;;8.50;7.27;;;;;;;;;;5003841;28;20329;-72
2021/09/04 12:35:06;;;;;;;9.97;7.07;;;;;;;;;;5004546;28;20269;-72
2021/09/04 12:37:33;;;;;;;9.53;6.90;;;;;;;;;;5001412;28;20235;-73
2021/09/04 12:40:10;;;;;;;10.27;7.20;;;;;;;;;;5003746;28;20750;-72
2021/09/04 12:42:37;;;;;;;9.23;7.17;;;;;;;;;;5006493;28;20300;-72
2021/09/04 12:45:11;;;;;;;9.77;7.13;;;;;;;;;;5005508;28;20257;-72
2021/09/04 12:47:45;;;;;;;11.03;7.17;;;;;;;;;;5006954;28;20322;-72
2021/09/04 12:50:23;;;;;;;11.47;6.80;;;;;;;;;;5005358;28;20214;-73
2021/09/04 12:53:04;;;;;;;8.87;6.60;;;;;;;;;;5004326;28;20732;-73
2021/09/04 12:55:51;;;;;;;7.90;6.90;;;;;;;;;;5005702;28;20672;-72
2021/09/04 12:58:17;;;;;;;8.83;7.57;;;;;;;;;;5006054;28;20583;-72
2021/09/04 13:00:44;;;;;;;10.37;7.67;;;;;;;;;;5004853;28;20281;-72
2021/09/04 13:03:11;;;;;;;10.97;7.53;;;;;;;;;;5004636;28;20240;-72
2021/09/04 13:05:37;;;;;;;10.93;7.87;;;;;;;;;;5005052;28;20266;-73
2021/09/04 13:08:04;;;;;;;9.13;7.60;;;;;;;;;;5003467;28;20251;-72
2021/09/04 13:10:32;;;;;;;11.67;8.47;;;;;;;;;;5003250;28;20640;-72
2021/09/04 13:13:00;;;;;;;11.90;8.03;;;;;;;;;;5005831;28;20690;-72
2021/09/04 13:15:26;;;;;;;9.63;7.70;;;;;;;;;;5006938;28;20739;-72
2021/09/04 13:17:52;;;;;;;9.43;7.73;;;;;;;;;;5007214;28;20219;-72
2021/09/04 13:20:19;;;;;;;8.60;7.63;;;;;;;;;;5005192;28;20223;-72
2021/09/04 13:22:45;;;;;;;12.13;8.23;;;;;;;;;;5003707;28;20227;-72
2021/09/04 13:25:14;;;;;;;10.80;7.07;;;;;;;;;;5003564;28;20271;-73
2021/09/04 13:27:44;;;;;;;7.30;6.00;;;;;;;;;;5003787;28;20219;-73
2021/09/04 13:30:12;;;;;;;8.40;7.03;;;;;;;;;;5002673;28;20264;-73
2021/09/04 13:32:39;;;;;;;9.60;7.07;;;;;;;;;;5004219;28;20227;-74
2021/09/04 13:35:06;;;;;;;10.17;6.90;;;;;;;;;;5004394;28;20279;-74
2021/09/04 13:37:33;;;;;;;10.70;7.93;;;;;;;;;;5005975;28;20232;-75
2021/09/04 13:39:59;;;;;;;8.90;6.63;;;;;;;;;;5003898;28;20305;-74
2021/09/04 13:42:26;;;;;;;8.23;6.60;;;;;;;;;;5005453;28;20204;-76
2021/09/04 13:44:52;;;;;;;8.10;6.50;;;;;;;;;;5004743;28;20513;-75
2021/09/04 13:47:20;;;;;;;8.23;6.73;;;;;;;;;;5008813;28;20216;-73
2021/09/04 13:49:46;;;;;;;7.60;6.53;;;;;;;;;;5005077;28;20236;-72
2021/09/04 13:52:13;;;;;;;14.77;7.87;;;;;;;;;;5009575;28;20235;-77
2021/09/04 13:54:39;;;;;;;10.60;6.73;;;;;;;;;;5010802;28;20216;-77
2021/09/04 13:57:06;;;;;;;9.53;6.57;;;;;;;;;;5011276;28;20216;-75
2021/09/04 13:59:32;;;;;;;8.33;6.53;;;;;;;;;;5006988;28;20249;-75
2021/09/04 14:01:58;;;;;;;7.93;6.40;;;;;;;;;;5007299;28;20289;-76
2021/09/04 14:04:26;;;;;;;9.37;7.03;;;;;;;;;;5008294;28;20220;-76
2021/09/04 14:06:53;;;;;;;11.60;6.57;;;;;;;;;;5006484;28;20308;-77
2021/09/04 14:09:19;;;;;;;8.23;6.60;;;;;;;;;;5006993;28;20242;-76
2021/09/04 14:11:45;;;;;;;9.57;7.40;;;;;;;;;;5007659;28;20225;-76
2021/09/04 14:14:12;;;;;;;9.63;7.00;;;;;;;;;;5008825;28;21189;-76
2021/09/04 14:16:38;;;;;;;9.23;6.77;;;;;;;;;;5007323;28;20804;-76
2021/09/04 14:19:04;;;;;;;10.50;6.93;;;;;;;;;;5006778;28;20610;-76
2021/09/04 14:21:32;;;;;;;8.90;6.40;;;;;;;;;;5008632;28;20229;-77
2021/09/04 14:23:59;;;;;;;7.77;6.43;;;;;;;;;;5007763;28;20235;-77
2021/09/04 14:26:25;;;;;;;8.67;7.07;;;;;;;;;;5008177;28;20267;-76
2021/09/04 14:28:51;;;;;;;7.87;6.60;;;;;;;;;;5006685;28;20572;-76
2021/09/04 14:31:18;;;;;;;8.43;7.17;;;;;;;;;;5008431;28;20212;-76
2021/09/04 14:33:44;;;;;;;9.27;7.07;;;;;;;;;;5008493;28;20208;-76
2021/09/04 14:36:10;;;;;;;8.27;6.47;;;;;;;;;;5006564;28;20336;-76